createdAt,value
2018-06-15T00:00:24.553Z,17.15
2018-06-15T00:02:58.882Z,17.20
2018-06-15T00:05:27.809Z,17.20
2018-06-15T00:07:56.744Z,17.19
2018-06-15T00:10:25.653Z,17.23
2018-06-15T00:12:54.573Z,17.19
2018-06-15T00:15:23.499Z,17.20
2018-06-15T00:17:52.406Z,17.17
2018-06-15T00:20:21.313Z,17.16
2018-06-15T00:22:50.225Z,17.15
2018-06-15T00:25:19.166Z,17.09
2018-06-15T00:27:48.066Z,17.12
2018-06-15T00:30:17.005Z,17.10
2018-06-15T00:32:45.924Z,17.10
2018-06-15T00:35:14.866Z,17.14
2018-06-15T00:37:43.766Z,17.15
2018-06-15T00:40:12.704Z,17.17
2018-06-15T00:42:41.613Z,17.17
2018-06-15T00:45:10.724Z,17.12
2018-06-15T00:47:39.648Z,17.15
2018-06-15T00:50:08.527Z,17.16
2018-06-15T00:52:37.470Z,17.15
2018-06-15T00:55:06.483Z,17.16
2018-06-15T00:57:48.406Z,17.17
2018-06-15T01:00:17.825Z,17.15
2018-06-15T01:02:47.001Z,17.18
2018-06-15T01:05:15.942Z,17.18
2018-06-15T01:07:44.840Z,17.16
2018-06-15T01:10:13.790Z,17.21
2018-06-15T01:12:42.729Z,17.22
2018-06-15T01:15:11.619Z,17.20
2018-06-15T01:17:40.541Z,17.16
2018-06-15T01:20:09.454Z,17.16
2018-06-15T01:22:38.636Z,17.13
2018-06-15T01:25:07.540Z,17.13
2018-06-15T01:27:36.501Z,17.13
2018-06-15T01:30:06.200Z,17.17
2018-06-15T01:32:35.101Z,17.12
2018-06-15T01:35:04.039Z,17.13
2018-06-15T01:37:32.957Z,17.02
2018-06-15T01:40:01.898Z,17.03
2018-06-15T01:42:30.865Z,17.07
2018-06-15T01:44:59.755Z,17.11
2018-06-15T01:47:28.654Z,17.08
2018-06-15T01:49:57.627Z,17.11
2018-06-15T01:52:26.516Z,17.07
2018-06-15T01:54:55.472Z,17.07
2018-06-15T01:57:24.407Z,17.10
2018-06-15T01:59:53.323Z,17.08
2018-06-15T02:02:22.255Z,17.01
2018-06-15T02:04:51.144Z,17.00
2018-06-15T02:07:20.090Z,17.01
2018-06-15T02:09:48.975Z,17.06
2018-06-15T02:12:17.942Z,17.05
2018-06-15T02:14:46.836Z,17.04
2018-06-15T02:17:15.754Z,17.04
2018-06-15T02:19:44.704Z,17.05
2018-06-15T02:22:13.651Z,17.01
2018-06-15T02:24:42.654Z,17.00
2018-06-15T02:27:11.609Z,17.03
2018-06-15T02:29:40.522Z,17.04
2018-06-15T02:32:09.462Z,16.98
2018-06-15T02:34:38.400Z,16.97
2018-06-15T02:37:07.321Z,16.96
2018-06-15T02:39:36.232Z,16.95
2018-06-15T02:42:05.202Z,16.89
2018-06-15T02:44:34.148Z,16.88
2018-06-15T02:47:03.041Z,16.85
2018-06-15T02:49:31.943Z,16.89
2018-06-15T02:52:00.843Z,16.84
2018-06-15T02:54:29.742Z,16.82
2018-06-15T02:56:58.684Z,16.81
2018-06-15T02:59:27.618Z,16.82
2018-06-15T03:01:56.871Z,16.83
2018-06-15T03:04:25.798Z,16.83
2018-06-15T03:06:54.744Z,16.81
2018-06-15T03:09:23.825Z,16.78
2018-06-15T03:11:52.740Z,16.80
2018-06-15T03:14:21.919Z,16.80
2018-06-15T03:16:51.328Z,16.80
2018-06-15T03:19:20.342Z,16.77
2018-06-15T03:21:49.260Z,16.81
2018-06-15T03:24:18.156Z,16.78
2018-06-15T03:26:47.051Z,16.82
2018-06-15T03:29:16.066Z,16.80
2018-06-15T03:31:44.989Z,16.75
2018-06-15T03:34:13.940Z,16.75
2018-06-15T03:36:42.839Z,16.73
2018-06-15T03:39:12.732Z,16.74
2018-06-15T03:41:41.676Z,16.77
2018-06-15T03:44:10.586Z,16.76
2018-06-15T03:46:39.539Z,16.80
2018-06-15T03:49:08.458Z,16.75
2018-06-15T03:51:37.375Z,16.67
2018-06-15T03:54:06.379Z,16.63
2018-06-15T03:56:35.283Z,16.65
2018-06-15T03:59:04.206Z,16.66
2018-06-15T04:01:33.137Z,16.71
2018-06-15T04:04:02.047Z,16.74
2018-06-15T04:06:30.973Z,16.79
2018-06-15T04:08:59.916Z,16.74
2018-06-15T04:11:28.827Z,16.76
2018-06-15T04:13:58.152Z,16.75
2018-06-15T04:16:27.334Z,16.72
2018-06-15T04:18:56.534Z,16.64
2018-06-15T04:21:25.732Z,16.54
2018-06-15T04:23:55.686Z,16.55
2018-06-15T04:26:24.602Z,16.67
2018-06-15T04:28:53.519Z,16.78
2018-06-15T04:31:22.492Z,16.83
2018-06-15T04:33:51.856Z,16.85
2018-06-15T04:36:20.764Z,16.88
2018-06-15T04:38:49.697Z,16.91
2018-06-15T04:41:18.617Z,16.89
2018-06-15T04:43:48.058Z,16.90
2018-06-15T04:46:16.935Z,16.94
2018-06-15T04:48:45.854Z,16.94
2018-06-15T04:51:14.763Z,16.97
2018-06-15T04:53:43.651Z,16.97
2018-06-15T04:56:12.571Z,17.03
2018-06-15T04:58:41.470Z,17.07
2018-06-15T05:01:10.424Z,17.07
2018-06-15T05:03:39.334Z,17.06
2018-06-15T05:06:08.228Z,17.17
2018-06-15T05:08:37.172Z,17.18
2018-06-15T05:11:06.075Z,17.24
2018-06-15T05:13:34.998Z,17.19
2018-06-15T05:16:03.966Z,17.09
2018-06-15T05:18:32.867Z,17.06
2018-06-15T05:21:01.786Z,17.07
2018-06-15T05:23:30.732Z,17.12
2018-06-15T05:25:59.669Z,17.19
2018-06-15T05:28:28.604Z,17.20
2018-06-15T05:30:57.487Z,17.25
2018-06-15T05:33:26.955Z,17.32
2018-06-15T05:35:55.942Z,17.30
2018-06-15T05:38:25.026Z,17.29
2018-06-15T05:40:53.977Z,17.32
2018-06-15T05:43:22.895Z,17.35
2018-06-15T05:45:51.856Z,17.43
2018-06-15T05:48:20.763Z,17.33
2018-06-15T05:50:49.718Z,17.41
2018-06-15T05:53:19.190Z,17.42
2018-06-15T05:55:48.233Z,17.48
2018-06-15T05:58:17.125Z,17.52
2018-06-15T06:00:46.091Z,17.57
2018-06-15T06:03:19.963Z,17.54
2018-06-15T06:05:49.487Z,17.57
2018-06-15T06:08:19.929Z,17.60
2018-06-15T06:10:49.417Z,17.58
2018-06-15T06:13:18.525Z,17.59
2018-06-15T06:15:47.635Z,17.64
2018-06-15T06:18:16.608Z,17.64
2018-06-15T06:20:45.545Z,17.57
2018-06-15T06:23:14.439Z,17.60
2018-06-15T06:25:43.360Z,17.65
2018-06-15T06:28:12.292Z,17.70
2018-06-15T06:30:41.209Z,17.71
2018-06-15T06:33:10.176Z,17.69
2018-06-15T06:35:39.090Z,17.61
2018-06-15T06:38:08.044Z,17.69
2018-06-15T06:40:36.973Z,17.67
2018-06-15T06:43:05.908Z,17.74
2018-06-15T06:45:34.818Z,17.74
2018-06-15T06:48:03.751Z,17.76
2018-06-15T06:50:32.675Z,17.78
2018-06-15T06:53:01.558Z,17.77
2018-06-15T06:55:30.481Z,17.72
2018-06-15T06:57:59.413Z,17.73
2018-06-15T07:00:28.334Z,17.78
2018-06-15T07:02:57.564Z,17.77
2018-06-15T07:05:26.478Z,17.81
2018-06-15T07:07:55.395Z,17.84
2018-06-15T07:10:24.408Z,17.87
2018-06-15T07:12:53.341Z,17.88
2018-06-15T07:15:22.244Z,17.87
2018-06-15T07:17:51.170Z,17.90
2018-06-15T07:20:20.100Z,17.85
2018-06-15T07:22:49.025Z,17.90
2018-06-15T07:25:18.094Z,17.91
2018-06-15T07:27:47.202Z,18.00
2018-06-15T07:30:16.118Z,18.06
2018-06-15T07:32:45.058Z,18.15
2018-06-15T07:35:13.969Z,18.16
2018-06-15T07:37:42.886Z,18.26
2018-06-15T07:40:11.796Z,18.17
2018-06-15T07:42:40.716Z,18.21
2018-06-15T07:45:09.637Z,18.16
2018-06-15T07:47:38.545Z,18.16
2018-06-15T07:50:07.432Z,18.21
2018-06-15T07:52:36.341Z,18.33
2018-06-15T07:55:05.289Z,18.38
2018-06-15T07:57:34.194Z,18.27
2018-06-15T08:00:03.101Z,18.30
2018-06-15T08:02:32.041Z,18.34
2018-06-15T08:05:00.951Z,18.43
2018-06-15T08:07:29.848Z,18.54
2018-06-15T08:09:58.776Z,18.64
2018-06-15T08:12:27.676Z,18.58
2018-06-15T08:14:56.601Z,18.57
2018-06-15T08:17:25.517Z,18.52
2018-06-15T08:19:54.436Z,18.45
2018-06-15T08:22:23.348Z,18.50
2018-06-15T08:24:52.289Z,18.55
2018-06-15T08:27:21.214Z,18.58
2018-06-15T08:29:50.110Z,18.58
2018-06-15T08:32:19.025Z,18.61
2018-06-15T08:34:48.232Z,18.64
2018-06-15T08:37:17.469Z,18.63
2018-06-15T08:39:46.909Z,18.67
2018-06-15T08:42:16.112Z,18.71
2018-06-15T08:44:45.009Z,18.76
2018-06-15T08:47:13.951Z,18.87
2018-06-15T08:49:42.854Z,18.83
2018-06-15T08:52:11.789Z,18.82
2018-06-15T08:54:40.700Z,18.90
2018-06-15T08:57:09.616Z,18.89
2018-06-15T08:59:38.558Z,18.93
2018-06-15T09:02:07.462Z,18.99
2018-06-15T09:04:36.372Z,19.06
2018-06-15T09:07:05.527Z,19.19
2018-06-15T09:09:34.425Z,19.18
2018-06-15T09:12:03.362Z,19.20
2018-06-15T09:14:32.287Z,19.29
2018-06-15T09:17:01.195Z,19.34
2018-06-15T09:19:30.094Z,19.46
2018-06-15T09:21:59.016Z,19.47
2018-06-15T09:24:27.934Z,19.47
2018-06-15T09:26:56.860Z,19.63
2018-06-15T09:29:25.998Z,19.66
2018-06-15T09:31:54.913Z,19.73
2018-06-15T09:34:23.859Z,19.70
2018-06-15T09:36:52.781Z,19.71
2018-06-15T09:39:21.922Z,19.65
2018-06-15T09:41:50.842Z,19.54
2018-06-15T09:44:19.762Z,19.46
2018-06-15T09:46:48.694Z,19.41
2018-06-15T09:49:17.584Z,19.39
2018-06-15T09:51:46.494Z,19.55
2018-06-15T09:54:15.437Z,19.66
2018-06-15T09:56:44.349Z,19.62
2018-06-15T09:59:13.293Z,19.56
2018-06-15T10:01:42.195Z,19.62
2018-06-15T10:04:11.092Z,19.67
2018-06-15T10:06:39.993Z,19.72
2018-06-15T10:09:08.901Z,19.87
2018-06-15T10:11:37.973Z,19.84
2018-06-15T10:14:06.900Z,19.86
2018-06-15T10:16:35.813Z,19.85
2018-06-15T10:19:04.730Z,19.86
2018-06-15T10:21:33.647Z,19.95
2018-06-15T10:24:02.568Z,20.05
2018-06-15T10:26:31.465Z,20.09
2018-06-15T10:29:00.396Z,20.05
2018-06-15T10:31:29.317Z,20.00
2018-06-15T10:33:58.218Z,20.00
2018-06-15T10:36:27.165Z,19.97
2018-06-15T10:38:56.073Z,20.05
2018-06-15T10:41:25.000Z,20.01
2018-06-15T10:43:53.927Z,20.05
2018-06-15T10:46:22.810Z,20.12
2018-06-15T10:48:51.738Z,20.17
2018-06-15T10:51:20.646Z,20.15
2018-06-15T10:53:49.534Z,20.41
2018-06-15T10:56:18.461Z,20.54
2018-06-15T10:58:47.367Z,20.56
2018-06-15T11:01:16.316Z,20.55
2018-06-15T11:03:45.221Z,20.73
2018-06-15T11:06:14.157Z,20.84
2018-06-15T11:08:46.708Z,20.78
2018-06-15T11:11:15.977Z,20.90
2018-06-15T11:13:44.920Z,21.11
2018-06-15T11:16:13.822Z,21.21
2018-06-15T11:18:42.725Z,21.28
2018-06-15T11:21:11.651Z,21.48
2018-06-15T11:23:40.558Z,21.24
2018-06-15T11:26:09.478Z,21.07
2018-06-15T11:28:38.398Z,21.08
2018-06-15T11:31:07.304Z,21.07
2018-06-15T11:33:36.240Z,21.05
2018-06-15T11:36:05.194Z,21.00
2018-06-15T11:38:34.145Z,20.89
2018-06-15T11:41:03.123Z,20.85
2018-06-15T11:43:31.952Z,20.91
2018-06-15T11:46:00.859Z,20.92
2018-06-15T11:48:29.750Z,21.04
2018-06-15T11:50:58.678Z,21.13
2018-06-15T11:53:27.640Z,21.34
2018-06-15T11:55:56.588Z,21.32
2018-06-15T11:58:25.474Z,21.14
2018-06-15T12:00:54.402Z,20.99
2018-06-15T12:03:24.333Z,20.93
2018-06-15T12:05:53.413Z,21.02
2018-06-15T12:08:25.487Z,21.09
2018-06-15T12:10:57.621Z,21.12
2018-06-15T12:13:26.520Z,21.25
2018-06-15T12:15:55.426Z,21.50
2018-06-15T12:18:24.339Z,21.76
2018-06-15T12:20:53.268Z,21.74
2018-06-15T12:23:22.226Z,21.59
2018-06-15T12:25:51.142Z,21.68
2018-06-15T12:28:20.058Z,21.72
2018-06-15T12:30:48.997Z,21.68
2018-06-15T12:33:17.919Z,21.84
2018-06-15T12:35:46.951Z,22.11
2018-06-15T12:38:16.240Z,22.26
2018-06-15T12:40:45.278Z,22.31
2018-06-15T12:43:14.285Z,22.41
2018-06-15T12:45:43.222Z,22.67
2018-06-15T12:48:12.134Z,22.72
2018-06-15T12:50:41.051Z,22.87
2018-06-15T12:53:10.114Z,22.91
2018-06-15T12:55:39.192Z,22.98
2018-06-15T12:58:08.134Z,22.94
2018-06-15T13:00:37.062Z,22.57
2018-06-15T13:03:06.001Z,22.31
2018-06-15T13:05:34.938Z,22.65
2018-06-15T13:08:03.883Z,22.91
2018-06-15T13:10:32.767Z,23.24
2018-06-15T13:13:01.698Z,23.43
2018-06-15T13:15:30.632Z,22.95
2018-06-15T13:17:59.604Z,22.97
2018-06-15T13:20:28.470Z,22.90
2018-06-15T13:22:57.359Z,23.21
2018-06-15T13:25:26.280Z,23.42
2018-06-15T13:27:55.190Z,23.20
2018-06-15T13:30:24.114Z,22.93
2018-06-15T13:32:53.054Z,23.15
2018-06-15T13:35:22.164Z,23.34
2018-06-15T13:37:51.124Z,23.33
2018-06-15T13:40:20.028Z,23.26
2018-06-15T13:42:48.983Z,23.53
2018-06-15T13:45:17.905Z,23.65
2018-06-15T13:47:46.949Z,23.75
2018-06-15T13:50:15.897Z,23.80
2018-06-15T13:52:44.802Z,23.26
2018-06-15T13:55:13.798Z,22.99
2018-06-15T13:57:42.729Z,22.94
2018-06-15T14:00:11.679Z,22.89
2018-06-15T14:02:40.798Z,22.87
2018-06-15T14:05:09.698Z,23.08
2018-06-15T14:07:38.635Z,23.33
2018-06-15T14:10:07.577Z,23.08
2018-06-15T14:12:36.483Z,23.02
2018-06-15T14:15:05.643Z,23.02
2018-06-15T14:17:34.549Z,23.16
2018-06-15T14:20:03.474Z,23.43
2018-06-15T14:22:32.716Z,23.46
2018-06-15T14:25:02.434Z,23.50
2018-06-15T14:27:31.736Z,23.51
2018-06-15T14:30:00.646Z,23.48
2018-06-15T14:32:29.554Z,23.27
2018-06-15T14:34:58.484Z,23.41
2018-06-15T14:37:27.420Z,23.24
2018-06-15T14:39:56.340Z,23.15
2018-06-15T14:42:25.247Z,23.23
2018-06-15T14:44:54.204Z,23.21
2018-06-15T14:47:23.128Z,23.25
2018-06-15T14:49:52.049Z,23.36
2018-06-15T14:52:20.977Z,23.18
2018-06-15T14:54:49.878Z,23.14
2018-06-15T14:57:18.790Z,23.20
2018-06-15T14:59:47.717Z,23.30
2018-06-15T15:02:16.592Z,23.29
2018-06-15T15:04:48.761Z,23.29
2018-06-15T15:07:17.652Z,23.36
2018-06-15T15:09:46.609Z,23.35
2018-06-15T15:12:15.524Z,23.50
2018-06-15T15:14:44.419Z,23.62
2018-06-15T15:17:13.356Z,23.87
2018-06-15T15:19:42.357Z,23.87
2018-06-15T15:22:11.308Z,23.85
2018-06-15T15:24:44.098Z,23.70
2018-06-15T15:27:13.082Z,23.49
2018-06-15T15:29:42.304Z,23.45
2018-06-15T15:32:11.240Z,23.39
2018-06-15T15:34:40.161Z,23.47
2018-06-15T15:37:09.120Z,23.54
2018-06-15T15:39:38.030Z,23.40
2018-06-15T15:42:07.024Z,23.40
2018-06-15T15:44:35.924Z,23.65
2018-06-15T15:47:05.028Z,23.52
2018-06-15T15:49:33.957Z,23.52
2018-06-15T15:52:02.880Z,23.62
2018-06-15T15:54:31.828Z,23.65
2018-06-15T15:57:00.723Z,23.58
2018-06-15T15:59:29.626Z,23.69
2018-06-15T16:01:58.646Z,23.75
2018-06-15T16:04:27.545Z,23.54
2018-06-15T16:06:56.514Z,23.49
2018-06-15T16:09:25.404Z,23.46
2018-06-15T16:11:54.654Z,23.49
2018-06-15T16:14:23.807Z,23.55
2018-06-15T16:16:52.718Z,23.53
2018-06-15T16:19:22.114Z,23.59
2018-06-15T16:21:51.031Z,23.50
2018-06-15T16:24:19.989Z,23.49
2018-06-15T16:26:48.940Z,23.35
2018-06-15T16:29:17.875Z,23.24
2018-06-15T16:31:46.814Z,23.26
2018-06-15T16:34:15.703Z,23.30
2018-06-15T16:36:44.625Z,23.36
2018-06-15T16:39:13.548Z,23.33
2018-06-15T16:41:42.479Z,23.25
2018-06-15T16:44:11.428Z,23.15
2018-06-15T16:46:40.346Z,23.04
2018-06-15T16:49:09.247Z,23.10
2018-06-15T16:51:38.161Z,23.24
2018-06-15T16:54:07.082Z,23.30
2018-06-15T16:56:36.013Z,23.37
2018-06-15T16:59:04.926Z,23.35
2018-06-15T17:01:33.829Z,23.38
2018-06-15T17:04:02.723Z,23.47
2018-06-15T17:06:31.631Z,23.49
2018-06-15T17:09:00.651Z,23.32
2018-06-15T17:11:29.582Z,23.16
2018-06-15T17:13:58.498Z,23.04
2018-06-15T17:16:27.428Z,23.07
2018-06-15T17:18:56.319Z,23.04
2018-06-15T17:21:25.260Z,22.92
2018-06-15T17:23:54.189Z,22.86
2018-06-15T17:26:23.243Z,22.83
2018-06-15T17:28:52.668Z,22.80
2018-06-15T17:31:21.647Z,22.85
2018-06-15T17:33:50.546Z,23.00
2018-06-15T17:36:19.452Z,23.07
2018-06-15T17:38:48.363Z,23.18
2018-06-15T17:41:17.304Z,23.02
2018-06-15T17:43:46.218Z,22.93
2018-06-15T17:46:15.143Z,22.95
2018-06-15T17:48:44.046Z,22.87
2018-06-15T17:51:13.028Z,22.89
2018-06-15T17:53:41.905Z,22.92
2018-06-15T17:56:10.829Z,22.95
2018-06-15T17:58:39.723Z,22.98
2018-06-15T18:01:08.669Z,22.95
2018-06-15T18:03:37.566Z,22.93
2018-06-15T18:06:06.494Z,22.82
2018-06-15T18:08:35.437Z,22.82
2018-06-15T18:11:04.312Z,22.85
2018-06-15T18:13:33.249Z,22.85
2018-06-15T18:16:02.144Z,22.82
2018-06-15T18:18:31.074Z,22.83
2018-06-15T18:21:00.100Z,22.77
2018-06-15T18:23:32.418Z,22.75
2018-06-15T18:26:01.383Z,22.74
2018-06-15T18:28:30.300Z,22.71
2018-06-15T18:30:59.202Z,22.64
2018-06-15T18:33:31.860Z,22.62
2018-06-15T18:36:00.750Z,22.68
2018-06-15T18:38:29.693Z,22.63
2018-06-15T18:40:58.620Z,22.57
2018-06-15T18:43:27.515Z,22.52
2018-06-15T18:45:56.422Z,22.49
2018-06-15T18:48:25.339Z,22.56
2018-06-15T18:50:54.242Z,22.49
2018-06-15T18:53:23.178Z,22.43
2018-06-15T18:55:52.054Z,22.45
2018-06-15T18:58:20.979Z,22.49
2018-06-15T19:00:49.877Z,22.46
2018-06-15T19:03:18.814Z,22.49
2018-06-15T19:05:47.723Z,22.47
2018-06-15T19:08:16.621Z,22.44
2018-06-15T19:10:45.559Z,22.42
2018-06-15T19:13:14.455Z,22.40
2018-06-15T19:15:43.381Z,22.32
2018-06-15T19:18:12.302Z,22.32
2018-06-15T19:20:41.206Z,22.28
2018-06-15T19:23:10.130Z,22.24
2018-06-15T19:25:39.029Z,22.15
2018-06-15T19:28:07.966Z,22.03
2018-06-15T19:30:36.861Z,21.92
2018-06-15T19:33:05.818Z,21.78
2018-06-15T19:35:34.736Z,21.63
2018-06-15T19:38:03.638Z,21.38
2018-06-15T19:40:32.566Z,21.30
2018-06-15T19:43:01.467Z,21.25
2018-06-15T19:45:30.370Z,21.07
2018-06-15T19:47:59.255Z,20.97
2018-06-15T19:50:28.188Z,20.98
2018-06-15T19:52:57.102Z,20.95
2018-06-15T19:55:26.022Z,20.88
2018-06-15T19:57:54.962Z,20.74
2018-06-15T20:00:23.905Z,20.67
2018-06-15T20:02:52.840Z,20.64
2018-06-15T20:05:21.800Z,20.60
2018-06-15T20:07:50.679Z,20.56
2018-06-15T20:10:19.626Z,20.33
2018-06-15T20:12:48.558Z,20.36
2018-06-15T20:15:17.444Z,20.24
2018-06-15T20:17:46.370Z,20.27
2018-06-15T20:20:15.267Z,20.20
2018-06-15T20:22:44.190Z,20.16
2018-06-15T20:25:13.278Z,20.09
2018-06-15T20:27:42.199Z,20.06
2018-06-15T20:30:11.123Z,20.03
2018-06-15T20:32:43.723Z,19.93
2018-06-15T20:35:12.668Z,19.87
2018-06-15T20:37:41.575Z,19.87
2018-06-15T20:40:10.474Z,19.83
2018-06-15T20:42:39.406Z,19.73
2018-06-15T20:45:08.346Z,19.64
2018-06-15T20:47:37.323Z,19.60
2018-06-15T20:50:06.155Z,19.53
2018-06-15T20:52:35.084Z,19.46
2018-06-15T20:55:03.984Z,19.43
2018-06-15T20:57:32.882Z,19.40
2018-06-15T21:00:01.858Z,19.37
2018-06-15T21:02:30.751Z,19.31
2018-06-15T21:04:59.658Z,19.28
2018-06-15T21:07:28.578Z,19.18
2018-06-15T21:09:57.698Z,19.15
2018-06-15T21:12:27.335Z,19.06
2018-06-15T21:14:56.260Z,19.02
2018-06-15T21:17:25.160Z,19.03
2018-06-15T21:19:54.055Z,18.98
2018-06-15T21:22:22.961Z,18.97
2018-06-15T21:24:51.997Z,18.94
2018-06-15T21:27:20.924Z,18.91
2018-06-15T21:29:50.045Z,18.87
2018-06-15T21:32:19.159Z,18.84
2018-06-15T21:34:48.071Z,18.82
2018-06-15T21:37:16.955Z,18.74
2018-06-15T21:39:45.885Z,18.76
2018-06-15T21:42:14.822Z,18.73
2018-06-15T21:44:43.719Z,18.67
2018-06-15T21:47:12.653Z,18.63
2018-06-15T21:49:41.884Z,18.66
2018-06-15T21:52:10.809Z,18.68
2018-06-15T21:54:39.719Z,18.68
2018-06-15T21:57:08.772Z,18.68
2018-06-15T21:59:37.703Z,18.62
2018-06-15T22:02:06.888Z,18.59
2018-06-15T22:04:35.823Z,18.44
2018-06-15T22:07:04.723Z,18.46
2018-06-15T22:09:33.648Z,18.45
2018-06-15T22:12:02.573Z,18.41
2018-06-15T22:14:31.459Z,18.43
2018-06-15T22:17:00.563Z,18.38
2018-06-15T22:19:29.479Z,18.35
2018-06-15T22:21:58.410Z,18.32
2018-06-15T22:24:27.341Z,18.20
2018-06-15T22:26:56.309Z,18.23
2018-06-15T22:29:25.245Z,18.24
2018-06-15T22:31:54.182Z,18.21
2018-06-15T22:34:23.105Z,18.18
2018-06-15T22:36:52.059Z,18.16
2018-06-15T22:39:21.390Z,18.13
2018-06-15T22:41:50.525Z,18.12
2018-06-15T22:44:19.450Z,18.10
2018-06-15T22:46:48.388Z,18.09
2018-06-15T22:49:17.328Z,18.05
2018-06-15T22:51:49.532Z,17.94
2018-06-15T22:54:18.460Z,17.81
2018-06-15T22:56:47.393Z,17.83
2018-06-15T22:59:16.316Z,17.85
2018-06-15T23:01:45.237Z,17.78
2018-06-15T23:04:14.160Z,17.78
2018-06-15T23:06:43.089Z,17.75
2018-06-15T23:09:12.536Z,17.78
2018-06-15T23:11:42.251Z,17.78
2018-06-15T23:14:11.644Z,17.74
2018-06-15T23:16:44.176Z,17.74
2018-06-15T23:19:13.105Z,17.74
2018-06-15T23:21:42.024Z,17.68
2018-06-15T23:24:10.964Z,17.73
2018-06-15T23:26:39.916Z,17.71
2018-06-15T23:29:08.853Z,17.62
2018-06-15T23:31:37.788Z,17.49
2018-06-15T23:34:06.972Z,17.47
2018-06-15T23:36:35.913Z,17.42
2018-06-15T23:39:06.972Z,17.30
2018-06-15T23:41:35.904Z,17.39
2018-06-15T23:44:04.816Z,17.39
2018-06-15T23:46:33.739Z,17.35
2018-06-15T23:49:02.712Z,17.35
2018-06-15T23:51:31.792Z,17.29
2018-06-15T23:54:00.717Z,17.31
2018-06-15T23:56:29.803Z,17.23
2018-06-15T23:58:58.723Z,17.35
